sensor_id;sensor_type;location;lat;lon;timestamp;pressure;altitude;pressure_sealevel;temperature;humidity
54808;BME280;40708;50.364;7.550;2023-05-12T00:00:39;102171.75;;;12.37;100.00
54808;BME280;40708;50.364;7.550;2023-05-12T00:03:05;102177.13;;;12.39;100.00
54808;BME280;40708;50.364;7.550;2023-05-12T00:05:30;102173.66;;;12.43;100.00
54808;BME280;40708;50.364;7.550;2023-05-12T00:07:56;102172.69;;;12.39;100.00
54808;BME280;40708;50.364;7.550;2023-05-12T00:10:21;102180.72;;;12.41;100.00
54808;BME280;40708;50.364;7.550;2023-05-12T00:12:47;102175.31;;;12.38;100.00
54808;BME280;40708;50.364;7.550;2023-05-12T00:15:12;102179.78;;;12.39;100.00
54808;BME280;40708;50.364;7.550;2023-05-12T00:17:37;102170.84;;;12.37;100.00
54808;BME280;40708;50.364;7.550;2023-05-12T00:20:04;102167.28;;;12.35;100.00
54808;BME280;40708;50.364;7.550;2023-05-12T00:22:30;102170.00;;;12.38;100.00
54808;BME280;40708;50.364;7.550;2023-05-12T00:24:55;102170.03;;;12.39;100.00
54808;BME280;40708;50.364;7.550;2023-05-12T00:27:20;102161.94;;;12.35;100.00
54808;BME280;40708;50.364;7.550;2023-05-12T00:29:46;102159.34;;;12.38;100.00
54808;BME280;40708;50.364;7.550;2023-05-12T00:32:11;102151.22;;;12.32;100.00
54808;BME280;40708;50.364;7.550;2023-05-12T00:34:36;102143.31;;;12.33;100.00
54808;BME280;40708;50.364;7.550;2023-05-12T00:37:02;102144.16;;;12.32;100.00
54808;BME280;40708;50.364;7.550;2023-05-12T00:39:27;102145.97;;;12.35;100.00
54808;BME280;40708;50.364;7.550;2023-05-12T00:41:58;102139.81;;;12.37;100.00
54808;BME280;40708;50.364;7.550;2023-05-12T00:44:24;102129.94;;;12.30;100.00
54808;BME280;40708;50.364;7.550;2023-05-12T00:46:49;102129.94;;;12.32;100.00
54808;BME280;40708;50.364;7.550;2023-05-12T00:49:15;102141.56;;;12.37;100.00
54808;BME280;40708;50.364;7.550;2023-05-12T00:51:41;102130.06;;;12.38;100.00
54808;BME280;40708;50.364;7.550;2023-05-12T00:54:07;102132.72;;;12.38;100.00
54808;BME280;40708;50.364;7.550;2023-05-12T00:56:33;102125.59;;;12.35;100.00
54808;BME280;40708;50.364;7.550;2023-05-12T00:59:06;102127.44;;;12.39;100.00
54808;BME280;40708;50.364;7.550;2023-05-12T01:01:32;102129.25;;;12.42;100.00
54808;BME280;40708;50.364;7.550;2023-05-12T01:03:58;102125.72;;;12.43;100.00
54808;BME280;40708;50.364;7.550;2023-05-12T01:06:44;102124.81;;;12.41;100.00
54808;BME280;40708;50.364;7.550;2023-05-12T01:09:13;102116.75;;;12.38;100.00
54808;BME280;40708;50.364;7.550;2023-05-12T01:11:39;102115.91;;;12.39;100.00
54808;BME280;40708;50.364;7.550;2023-05-12T01:14:04;102114.13;;;12.39;100.00
54808;BME280;40708;50.364;7.550;2023-05-12T01:16:34;102115.97;;;12.43;100.00
54808;BME280;40708;50.364;7.550;2023-05-12T01:19:04;102123.91;;;12.42;100.00
54808;BME280;40708;50.364;7.550;2023-05-12T01:21:29;102115.00;;;12.38;100.00
54808;BME280;40708;50.364;7.550;2023-05-12T01:23:58;102120.34;;;12.40;100.00
54808;BME280;40708;50.364;7.550;2023-05-12T01:26:26;102116.84;;;12.42;100.00
54808;BME280;40708;50.364;7.550;2023-05-12T01:28:54;102117.78;;;12.44;100.00
54808;BME280;40708;50.364;7.550;2023-05-12T01:31:19;102129.28;;;12.43;100.00
54808;BME280;40708;50.364;7.550;2023-05-12T01:33:45;102129.38;;;12.46;100.00
54808;BME280;40708;50.364;7.550;2023-05-12T01:36:11;102126.66;;;12.45;100.00
54808;BME280;40708;50.364;7.550;2023-05-12T01:38:36;102129.38;;;12.46;100.00
54808;BME280;40708;50.364;7.550;2023-05-12T01:41:02;102136.50;;;12.49;100.00
54808;BME280;40708;50.364;7.550;2023-05-12T01:43:27;102127.59;;;12.47;100.00
54808;BME280;40708;50.364;7.550;2023-05-12T01:45:52;102127.66;;;12.50;100.00
54808;BME280;40708;50.364;7.550;2023-05-12T01:48:17;102124.97;;;12.48;100.00
54808;BME280;40708;50.364;7.550;2023-05-12T01:50:43;102125.00;;;12.50;100.00
54808;BME280;40708;50.364;7.550;2023-05-12T01:53:08;102119.56;;;12.44;100.00
54808;BME280;40708;50.364;7.550;2023-05-12T01:55:36;102123.13;;;12.44;100.00
54808;BME280;40708;50.364;7.550;2023-05-12T01:58:02;102122.28;;;12.47;100.00
54808;BME280;40708;50.364;7.550;2023-05-12T02:00:27;102130.25;;;12.47;100.00
54808;BME280;40708;50.364;7.550;2023-05-12T02:02:52;102125.84;;;12.49;100.00
54808;BME280;40708;50.364;7.550;2023-05-12T02:05:18;102133.78;;;12.47;100.00
54808;BME280;40708;50.364;7.550;2023-05-12T02:07:43;102120.41;;;12.43;100.00
54808;BME280;40708;50.364;7.550;2023-05-12T02:10:08;102131.97;;;12.45;100.00
54808;BME280;40708;50.364;7.550;2023-05-12T02:12:34;102133.78;;;12.44;100.00
54808;BME280;40708;50.364;7.550;2023-05-12T02:14:59;102132.03;;;12.46;100.00
54808;BME280;40708;50.364;7.550;2023-05-12T02:17:24;102131.06;;;12.43;100.00
54808;BME280;40708;50.364;7.550;2023-05-12T02:19:50;102123.91;;;12.42;100.00
54808;BME280;40708;50.364;7.550;2023-05-12T02:22:15;102122.16;;;12.41;100.00
54808;BME280;40708;50.364;7.550;2023-05-12T02:24:41;102132.88;;;12.45;100.00
54808;BME280;40708;50.364;7.550;2023-05-12T02:27:06;102125.78;;;12.46;100.00
54808;BME280;40708;50.364;7.550;2023-05-12T02:29:31;102131.19;;;12.49;100.00
54808;BME280;40708;50.364;7.550;2023-05-12T02:31:56;102132.09;;;12.51;100.00
54808;BME280;40708;50.364;7.550;2023-05-12T02:34:22;102122.34;;;12.51;100.00
54808;BME280;40708;50.364;7.550;2023-05-12T02:36:47;102116.94;;;12.47;100.00
54808;BME280;40708;50.364;7.550;2023-05-12T02:39:12;102123.25;;;12.52;100.00
54808;BME280;40708;50.364;7.550;2023-05-12T02:41:38;102115.16;;;12.47;100.00
54808;BME280;40708;50.364;7.550;2023-05-12T02:44:03;102115.16;;;12.46;100.00
54808;BME280;40708;50.364;7.550;2023-05-12T02:46:29;102117.81;;;12.47;100.00
54808;BME280;40708;50.364;7.550;2023-05-12T02:48:54;102111.56;;;12.44;100.00
54808;BME280;40708;50.364;7.550;2023-05-12T02:51:19;102115.09;;;12.43;100.00
54808;BME280;40708;50.364;7.550;2023-05-12T02:53:44;102111.50;;;12.41;100.00
54808;BME280;40708;50.364;7.550;2023-05-12T02:56:10;102123.00;;;12.40;100.00
54808;BME280;40708;50.364;7.550;2023-05-12T02:58:36;102116.78;;;12.39;100.00
54808;BME280;40708;50.364;7.550;2023-05-12T03:01:01;102127.44;;;12.39;100.00
54808;BME280;40708;50.364;7.550;2023-05-12T03:03:26;102135.41;;;12.39;100.00
54808;BME280;40708;50.364;7.550;2023-05-12T03:05:52;102145.19;;;12.40;100.00
54808;BME280;40708;50.364;7.550;2023-05-12T03:08:17;102159.44;;;12.42;100.00
54808;BME280;40708;50.364;7.550;2023-05-12T03:10:43;102163.00;;;12.43;100.00
54808;BME280;40708;50.364;7.550;2023-05-12T03:13:08;102164.69;;;12.38;100.00
54808;BME280;40708;50.364;7.550;2023-05-12T03:15:34;102183.31;;;12.39;100.00
54808;BME280;40708;50.364;7.550;2023-05-12T03:18:00;102189.53;;;12.38;100.00
54808;BME280;40708;50.364;7.550;2023-05-12T03:20:26;102195.78;;;12.40;100.00
54808;BME280;40708;50.364;7.550;2023-05-12T03:22:51;102201.16;;;12.43;100.00
54808;BME280;40708;50.364;7.550;2023-05-12T03:25:16;102201.16;;;12.43;100.00
54808;BME280;40708;50.364;7.550;2023-05-12T03:27:41;102210.06;;;12.44;100.00
54808;BME280;40708;50.364;7.550;2023-05-12T03:30:07;102210.06;;;12.44;100.00
54808;BME280;40708;50.364;7.550;2023-05-12T03:32:33;102208.31;;;12.46;100.00
54808;BME280;40708;50.364;7.550;2023-05-12T03:34:58;102212.81;;;12.48;100.00
54808;BME280;40708;50.364;7.550;2023-05-12T03:37:23;102208.31;;;12.46;100.00
54808;BME280;40708;50.364;7.550;2023-05-12T03:39:48;102224.38;;;12.50;100.00
54808;BME280;40708;50.364;7.550;2023-05-12T03:42:14;102214.69;;;12.54;100.00
54808;BME280;40708;50.364;7.550;2023-05-12T03:44:39;102209.38;;;12.54;100.00
54808;BME280;40708;50.364;7.550;2023-05-12T03:47:05;102204.97;;;12.56;100.00
54808;BME280;40708;50.364;7.550;2023-05-12T03:49:30;102193.41;;;12.54;100.00
54808;BME280;40708;50.364;7.550;2023-05-12T03:51:55;102190.75;;;12.54;100.00
54808;BME280;40708;50.364;7.550;2023-05-12T03:54:21;102179.16;;;12.52;100.00
54808;BME280;40708;50.364;7.550;2023-05-12T03:56:46;102184.50;;;12.52;100.00
54808;BME280;40708;50.364;7.550;2023-05-12T03:59:11;102179.13;;;12.50;100.00
54808;BME280;40708;50.364;7.550;2023-05-12T04:01:37;102180.94;;;12.51;100.00
54808;BME280;40708;50.364;7.550;2023-05-12T04:04:03;102181.84;;;12.53;100.00
54808;BME280;40708;50.364;7.550;2023-05-12T04:06:28;102184.56;;;12.57;100.00
54808;BME280;40708;50.364;7.550;2023-05-12T04:08:53;102176.59;;;12.57;100.00
54808;BME280;40708;50.364;7.550;2023-05-12T04:11:19;102181.97;;;12.60;100.00
54808;BME280;40708;50.364;7.550;2023-05-12T04:13:44;102181.97;;;12.60;100.00
54808;BME280;40708;50.364;7.550;2023-05-12T04:16:09;102188.22;;;12.62;100.00
54808;BME280;40708;50.364;7.550;2023-05-12T04:18:34;102183.78;;;12.61;100.00
54808;BME280;40708;50.364;7.550;2023-05-12T04:21:00;102185.53;;;12.60;100.00
54808;BME280;40708;50.364;7.550;2023-05-12T04:23:27;102192.72;;;12.64;100.00
54808;BME280;40708;50.364;7.550;2023-05-12T04:25:52;102193.69;;;12.68;100.00
54808;BME280;40708;50.364;7.550;2023-05-12T04:28:17;102198.09;;;12.67;100.00
54808;BME280;40708;50.364;7.550;2023-05-12T04:30:43;102197.25;;;12.68;100.00
54808;BME280;40708;50.364;7.550;2023-05-12T04:33:08;102211.56;;;12.75;100.00
54808;BME280;40708;50.364;7.550;2023-05-12T04:35:34;102201.78;;;12.74;100.00
54808;BME280;40708;50.364;7.550;2023-05-12T04:38:00;102200.81;;;12.70;100.00
54808;BME280;40708;50.364;7.550;2023-05-12T04:40:26;102193.75;;;12.72;100.00
54808;BME280;40708;50.364;7.550;2023-05-12T04:42:52;102183.09;;;12.71;100.00
54808;BME280;40708;50.364;7.550;2023-05-12T04:45:17;102185.69;;;12.69;100.00
54808;BME280;40708;50.364;7.550;2023-05-12T04:47:42;102162.56;;;12.65;100.00
54808;BME280;40708;50.364;7.550;2023-05-12T04:50:08;102168.91;;;12.72;100.00
54808;BME280;40708;50.364;7.550;2023-05-12T04:52:34;102165.34;;;12.71;100.00
54808;BME280;40708;50.364;7.550;2023-05-12T04:55:00;102148.22;;;12.59;100.00
54808;BME280;40708;50.364;7.550;2023-05-12T04:57:25;102150.16;;;12.66;100.00
54808;BME280;40708;50.364;7.550;2023-05-12T04:59:51;102143.09;;;12.69;100.00
54808;BME280;40708;50.364;7.550;2023-05-12T05:02:16;102133.25;;;12.64;100.00
54808;BME280;40708;50.364;7.550;2023-05-12T05:04:41;102120.78;;;12.63;100.00
54808;BME280;40708;50.364;7.550;2023-05-12T05:07:07;102097.69;;;12.62;100.00
54808;BME280;40708;50.364;7.550;2023-05-12T05:09:32;102099.41;;;12.58;100.00
54808;BME280;40708;50.364;7.550;2023-05-12T05:11:57;102087.81;;;12.54;100.00
54808;BME280;40708;50.364;7.550;2023-05-12T05:14:23;102079.78;;;12.53;100.00
54808;BME280;40708;50.364;7.550;2023-05-12T05:16:48;102071.78;;;12.51;100.00
54808;BME280;40708;50.364;7.550;2023-05-12T05:19:14;102069.91;;;12.47;100.00
54808;BME280;40708;50.364;7.550;2023-05-12T05:21:40;102079.63;;;12.44;100.00
54808;BME280;40708;50.364;7.550;2023-05-12T05:24:05;102081.41;;;12.45;100.00
54808;BME280;40708;50.364;7.550;2023-05-12T05:26:31;102082.28;;;12.44;100.00
54808;BME280;40708;50.364;7.550;2023-05-12T05:28:57;102093.00;;;12.47;100.00
54808;BME280;40708;50.364;7.550;2023-05-12T05:31:22;102101.06;;;12.51;100.00
54808;BME280;40708;50.364;7.550;2023-05-12T05:33:48;102105.53;;;12.52;100.00
54808;BME280;40708;50.364;7.550;2023-05-12T05:36:13;102117.16;;;12.58;100.00
54808;BME280;40708;50.364;7.550;2023-05-12T05:38:38;102123.31;;;12.55;100.00
54808;BME280;40708;50.364;7.550;2023-05-12T05:41:04;102125.88;;;12.50;100.00
54808;BME280;40708;50.364;7.550;2023-05-12T05:43:30;102135.69;;;12.53;100.00
54808;BME280;40708;50.364;7.550;2023-05-12T05:45:55;102140.06;;;12.49;100.00
54808;BME280;40708;50.364;7.550;2023-05-12T05:48:23;102166.00;;;12.60;100.00
54808;BME280;40708;50.364;7.550;2023-05-12T05:50:49;102163.34;;;12.61;100.00
54808;BME280;40708;50.364;7.550;2023-05-12T05:53:16;102164.41;;;12.69;100.00
54808;BME280;40708;50.364;7.550;2023-05-12T05:55:42;102161.78;;;12.71;100.00
54808;BME280;40708;50.364;7.550;2023-05-12T05:58:08;102153.03;;;12.78;100.00
54808;BME280;40708;50.364;7.550;2023-05-12T06:00:33;102153.97;;;12.81;100.00
54808;BME280;40708;50.364;7.550;2023-05-12T06:02:59;102149.69;;;12.89;100.00
54808;BME280;40708;50.364;7.550;2023-05-12T06:05:24;102151.69;;;13.02;100.00
54808;BME280;40708;50.364;7.550;2023-05-12T06:07:49;102156.38;;;13.14;100.00
54808;BME280;40708;50.364;7.550;2023-05-12T06:10:14;102141.47;;;13.27;100.00
54808;BME280;40708;50.364;7.550;2023-05-12T06:12:41;102127.41;;;13.35;100.00
54808;BME280;40708;50.364;7.550;2023-05-12T06:15:07;102118.66;;;13.44;100.00
54808;BME280;40708;50.364;7.550;2023-05-12T06:17:33;102098.25;;;13.46;100.00
54808;BME280;40708;50.364;7.550;2023-05-12T06:19:58;102074.31;;;13.50;100.00
54808;BME280;40708;50.364;7.550;2023-05-12T06:22:23;102052.16;;;13.54;100.00
54808;BME280;40708;50.364;7.550;2023-05-12T06:24:49;102024.75;;;13.66;100.00
54808;BME280;40708;50.364;7.550;2023-05-12T06:27:14;102007.03;;;13.72;100.00
54808;BME280;40708;50.364;7.550;2023-05-12T06:29:39;101986.78;;;13.88;100.00
54808;BME280;40708;50.364;7.550;2023-05-12T06:32:05;101996.09;;;14.29;100.00
54808;BME280;40708;50.364;7.550;2023-05-12T06:34:31;101984.06;;;14.69;100.00
54808;BME280;40708;50.364;7.550;2023-05-12T06:36:56;101954.94;;;15.10;100.00
54808;BME280;40708;50.364;7.550;2023-05-12T06:39:22;101903.34;;;15.31;100.00
54808;BME280;40708;50.364;7.550;2023-05-12T06:41:47;101790.16;;;15.29;100.00
54808;BME280;40708;50.364;7.550;2023-05-12T06:44:12;101733.16;;;15.69;100.00
54808;BME280;40708;50.364;7.550;2023-05-12T06:46:38;101648.41;;;15.85;100.00
54808;BME280;40708;50.364;7.550;2023-05-12T06:49:04;101507.50;;;15.75;100.00
54808;BME280;40708;50.364;7.550;2023-05-12T06:51:30;101433.47;;;15.80;100.00
54808;BME280;40708;50.364;7.550;2023-05-12T06:53:55;101393.28;;;15.89;100.00
54808;BME280;40708;50.364;7.550;2023-05-12T06:56:20;101241.94;;;15.47;100.00
54808;BME280;40708;50.364;7.550;2023-05-12T06:58:47;101267.69;;;15.63;100.00
54808;BME280;40708;50.364;7.550;2023-05-12T07:01:13;101247.31;;;15.39;100.00
54808;BME280;40708;50.364;7.550;2023-05-12T07:03:38;101210.81;;;15.34;100.00
54808;BME280;40708;50.364;7.550;2023-05-12T07:06:04;101210.81;;;15.34;100.00
54808;BME280;40708;50.364;7.550;2023-05-12T07:08:29;101182.34;;;15.25;100.00
54808;BME280;40708;50.364;7.550;2023-05-12T07:10:54;101149.16;;;15.55;100.00
54808;BME280;40708;50.364;7.550;2023-05-12T07:13:20;101135.38;;;15.96;100.00
54808;BME280;40708;50.364;7.550;2023-05-12T07:15:45;101148.34;;;16.34;100.00
54808;BME280;40708;50.364;7.550;2023-05-12T07:18:10;101050.44;;;16.12;100.00
54808;BME280;40708;50.364;7.550;2023-05-12T07:20:35;101025.97;;;15.72;100.00
54808;BME280;40708;50.364;7.550;2023-05-12T07:23:02;100990.66;;;15.38;100.00
54808;BME280;40708;50.364;7.550;2023-05-12T07:25:27;101019.94;;;15.53;100.00
54808;BME280;40708;50.364;7.550;2023-05-12T07:27:53;101042.41;;;15.32;100.00
54808;BME280;40708;50.364;7.550;2023-05-12T07:30:18;101046.19;;;15.04;100.00
54808;BME280;40708;50.364;7.550;2023-05-12T07:32:44;101056.00;;;15.04;100.00
54808;BME280;40708;50.364;7.550;2023-05-12T07:35:10;101059.59;;;14.98;100.00
54808;BME280;40708;50.364;7.550;2023-05-12T07:37:35;101083.56;;;15.13;100.00
54808;BME280;40708;50.364;7.550;2023-05-12T07:40:00;101103.13;;;15.14;100.00
54808;BME280;40708;50.364;7.550;2023-05-12T07:42:26;101126.34;;;15.06;100.00
54808;BME280;40708;50.364;7.550;2023-05-12T07:44:51;101118.31;;;15.10;100.00
54808;BME280;40708;50.364;7.550;2023-05-12T07:47:16;101128.19;;;15.02;100.00
54808;BME280;40708;50.364;7.550;2023-05-12T07:49:42;101130.78;;;15.10;100.00
54808;BME280;40708;50.364;7.550;2023-05-12T07:52:07;101127.22;;;15.11;100.00
54808;BME280;40708;50.364;7.550;2023-05-12T07:54:32;101105.97;;;14.91;100.00
54808;BME280;40708;50.364;7.550;2023-05-12T07:56:58;101103.19;;;15.08;100.00
54808;BME280;40708;50.364;7.550;2023-05-12T07:59:23;101078.28;;;15.01;100.00
54808;BME280;40708;50.364;7.550;2023-05-12T08:01:48;101100.38;;;15.23;100.00
54808;BME280;40708;50.364;7.550;2023-05-12T08:04:14;101053.34;;;15.05;100.00
54808;BME280;40708;50.364;7.550;2023-05-12T08:06:39;101059.69;;;14.89;100.00
54808;BME280;40708;50.364;7.550;2023-05-12T08:09:04;101053.34;;;15.02;100.00
54808;BME280;40708;50.364;7.550;2023-05-12T08:11:30;101044.19;;;15.27;100.00
54808;BME280;40708;50.364;7.550;2023-05-12T08:13:55;101014.66;;;15.41;100.00
54808;BME280;40708;50.364;7.550;2023-05-12T08:16:21;101015.44;;;15.55;100.00
54808;BME280;40708;50.364;7.550;2023-05-12T08:18:47;100995.09;;;15.39;100.00
54808;BME280;40708;50.364;7.550;2023-05-12T08:21:12;100974.28;;;15.70;100.00
54808;BME280;40708;50.364;7.550;2023-05-12T08:23:37;100986.28;;;15.28;100.00
54808;BME280;40708;50.364;7.550;2023-05-12T08:26:03;101014.59;;;15.52;100.00
54808;BME280;40708;50.364;7.550;2023-05-12T08:28:28;101017.63;;;15.97;100.00
54808;BME280;40708;50.364;7.550;2023-05-12T08:30:55;100943.28;;;16.19;100.00
54808;BME280;40708;50.364;7.550;2023-05-12T08:33:20;100909.91;;;16.41;100.00
54808;BME280;40708;50.364;7.550;2023-05-12T08:35:45;100824.19;;;16.43;100.00
54808;BME280;40708;50.364;7.550;2023-05-12T08:38:11;100827.34;;;16.67;100.00
54808;BME280;40708;50.364;7.550;2023-05-12T08:40:42;100813.69;;;16.81;100.00
54808;BME280;40708;50.364;7.550;2023-05-12T08:43:25;100780.84;;;17.14;100.00
54808;BME280;40708;50.364;7.550;2023-05-12T08:45:51;100748.75;;;17.10;100.00
54808;BME280;40708;50.364;7.550;2023-05-12T08:48:21;100743.97;;;16.83;100.00
54808;BME280;40708;50.364;7.550;2023-05-12T08:50:50;100708.06;;;16.93;100.00
54808;BME280;40708;50.364;7.550;2023-05-12T08:53:17;100729.84;;;16.75;100.00
54808;BME280;40708;50.364;7.550;2023-05-12T08:55:43;100744.91;;;16.80;100.00
54808;BME280;40708;50.364;7.550;2023-05-12T08:58:10;100736.81;;;16.83;100.00
54808;BME280;40708;50.364;7.550;2023-05-12T09:00:37;100723.06;;;17.00;100.00
54808;BME280;40708;50.364;7.550;2023-05-12T09:03:04;100683.78;;;16.99;100.00
54808;BME280;40708;50.364;7.550;2023-05-12T09:05:30;100704.91;;;17.12;100.00
54808;BME280;40708;50.364;7.550;2023-05-12T09:07:57;100685.00;;;16.84;100.00
54808;BME280;40708;50.364;7.550;2023-05-12T09:10:23;100697.06;;;17.05;100.00
54808;BME280;40708;50.364;7.550;2023-05-12T09:12:51;100685.84;;;17.26;100.00
54808;BME280;40708;50.364;7.550;2023-05-12T09:15:22;100671.47;;;17.30;100.00
54808;BME280;40708;50.364;7.550;2023-05-12T09:17:49;100644.16;;;17.50;100.00
54808;BME280;40708;50.364;7.550;2023-05-12T09:20:15;100623.50;;;17.16;100.00
54808;BME280;40708;50.364;7.550;2023-05-12T09:22:41;100618.09;;;17.18;100.00
54808;BME280;40708;50.364;7.550;2023-05-12T09:25:16;100618.38;;;17.44;100.00
54808;BME280;40708;50.364;7.550;2023-05-12T09:27:45;100606.38;;;17.59;100.00
54808;BME280;40708;50.364;7.550;2023-05-12T09:30:11;100591.72;;;17.73;100.00
54808;BME280;40708;50.364;7.550;2023-05-12T09:32:36;100578.22;;;17.41;100.00
54808;BME280;40708;50.364;7.550;2023-05-12T09:35:03;100581.88;;;17.37;100.00
54808;BME280;40708;50.364;7.550;2023-05-12T09:37:30;100589.22;;;17.29;100.00
54808;BME280;40708;50.364;7.550;2023-05-12T09:40:00;100582.41;;;17.17;100.00
54808;BME280;40708;50.364;7.550;2023-05-12T09:42:28;100583.06;;;17.62;100.00
54808;BME280;40708;50.364;7.550;2023-05-12T09:45:04;100574.88;;;17.99;100.00
54808;BME280;40708;50.364;7.550;2023-05-12T09:47:35;100553.06;;;18.42;100.00
54808;BME280;40708;50.364;7.550;2023-05-12T09:50:01;100543.38;;;18.36;100.00
54808;BME280;40708;50.364;7.550;2023-05-12T09:52:28;100539.72;;;18.10;100.00
54808;BME280;40708;50.364;7.550;2023-05-12T09:54:53;100540.06;;;18.28;100.00
54808;BME280;40708;50.364;7.550;2023-05-12T09:57:20;100515.41;;;18.43;100.00
54808;BME280;40708;50.364;7.550;2023-05-12T09:59:47;100511.75;;;18.75;100.00
54808;BME280;40708;50.364;7.550;2023-05-12T10:02:13;100495.69;;;19.00;100.00
54808;BME280;40708;50.364;7.550;2023-05-12T10:04:49;100467.25;;;19.19;100.00
54808;BME280;40708;50.364;7.550;2023-05-12T10:07:15;100479.25;;;18.83;100.00
54808;BME280;40708;50.364;7.550;2023-05-12T10:09:43;100475.75;;;19.07;100.00
54808;BME280;40708;50.364;7.550;2023-05-12T10:12:09;100460.38;;;19.37;100.00
54808;BME280;40708;50.364;7.550;2023-05-12T10:14:35;100467.63;;;19.59;100.00
54808;BME280;40708;50.364;7.550;2023-05-12T10:17:02;100468.34;;;19.14;100.00
54808;BME280;40708;50.364;7.550;2023-05-12T10:19:29;100463.44;;;19.26;100.00
54808;BME280;40708;50.364;7.550;2023-05-12T10:21:55;100465.97;;;19.05;100.00
54808;BME280;40708;50.364;7.550;2023-05-12T10:24:24;100481.75;;;19.15;100.00
54808;BME280;40708;50.364;7.550;2023-05-12T10:26:52;100464.09;;;19.59;100.00
54808;BME280;40708;50.364;7.550;2023-05-12T10:29:18;100447.78;;;19.64;100.00
54808;BME280;40708;50.364;7.550;2023-05-12T10:31:43;100452.00;;;19.20;100.00
54808;BME280;40708;50.364;7.550;2023-05-12T10:34:15;100446.88;;;19.38;100.00
54808;BME280;40708;50.364;7.550;2023-05-12T10:36:46;100430.81;;;19.35;100.00
54808;BME280;40708;50.364;7.550;2023-05-12T10:39:12;100431.78;;;19.84;100.00
54808;BME280;40708;50.364;7.550;2023-05-12T10:41:39;100425.19;;;20.14;100.00
54808;BME280;40708;50.364;7.550;2023-05-12T10:44:05;100413.56;;;20.37;100.00
54808;BME280;40708;50.364;7.550;2023-05-12T10:46:30;100404.22;;;20.67;100.00
54808;BME280;40708;50.364;7.550;2023-05-12T10:49:06;100385.72;;;21.21;100.00
54808;BME280;40708;50.364;7.550;2023-05-12T10:54:17;100389.53;;;21.56;100.00
54808;BME280;40708;50.364;7.550;2023-05-12T10:56:43;100393.47;;;21.29;100.00
54808;BME280;40708;50.364;7.550;2023-05-12T11:02:12;100383.44;;;21.32;100.00
54808;BME280;40708;50.364;7.550;2023-05-12T11:04:48;100387.13;;;20.68;100.00
54808;BME280;40708;50.364;7.550;2023-05-12T11:07:16;100390.75;;;20.67;100.00
54808;BME280;40708;50.364;7.550;2023-05-12T11:09:45;100401.47;;;20.24;100.00
54808;BME280;40708;50.364;7.550;2023-05-12T11:12:12;100408.91;;;20.17;100.00
54808;BME280;40708;50.364;7.550;2023-05-12T11:14:40;100411.28;;;19.80;100.00
54808;BME280;40708;50.364;7.550;2023-05-12T11:17:06;100417.13;;;19.17;100.00
54808;BME280;40708;50.364;7.550;2023-05-12T11:19:32;100432.59;;;18.85;100.00
54808;BME280;40708;50.364;7.550;2023-05-12T11:22:06;100420.09;;;18.27;100.00
54808;BME280;40708;50.364;7.550;2023-05-12T11:24:39;100438.69;;;18.06;100.00
54808;BME280;40708;50.364;7.550;2023-05-12T11:27:06;100449.03;;;17.89;100.00
54808;BME280;40708;50.364;7.550;2023-05-12T11:29:35;100444.88;;;17.78;100.00
54808;BME280;40708;50.364;7.550;2023-05-12T11:32:02;100464.03;;;17.65;100.00
54808;BME280;40708;50.364;7.550;2023-05-12T11:34:27;100466.97;;;17.56;100.00
54808;BME280;40708;50.364;7.550;2023-05-12T11:36:54;100474.66;;;17.36;100.00
54808;BME280;40708;50.364;7.550;2023-05-12T11:39:25;100493.13;;;17.12;100.00
54808;BME280;40708;50.364;7.550;2023-05-12T11:41:51;100509.72;;;16.93;100.00
54808;BME280;40708;50.364;7.550;2023-05-12T11:44:21;100510.75;;;16.87;100.00
54808;BME280;40708;50.364;7.550;2023-05-12T11:49:21;100526.03;;;16.84;100.00
54808;BME280;40708;50.364;7.550;2023-05-12T11:51:46;100542.81;;;16.92;100.00
54808;BME280;40708;50.364;7.550;2023-05-12T11:54:13;100550.97;;;16.86;100.00
54808;BME280;40708;50.364;7.550;2023-05-12T11:56:46;100553.94;;;17.10;100.00
54808;BME280;40708;50.364;7.550;2023-05-12T11:59:12;100551.31;;;17.09;100.00
54808;BME280;40708;50.364;7.550;2023-05-12T12:01:43;100537.94;;;17.07;100.00
54808;BME280;40708;50.364;7.550;2023-05-12T12:04:10;100530.44;;;17.21;100.00
54808;BME280;40708;50.364;7.550;2023-05-12T12:06:42;100527.69;;;17.24;100.00
54808;BME280;40708;50.364;7.550;2023-05-12T12:09:08;100526.88;;;17.56;100.00
54808;BME280;40708;50.364;7.550;2023-05-12T12:11:34;100523.22;;;17.59;100.00
54808;BME280;40708;50.364;7.550;2023-05-12T12:13:59;100516.34;;;17.82;100.00
54808;BME280;40708;50.364;7.550;2023-05-12T12:16:28;100522.22;;;17.95;100.00
54808;BME280;40708;50.364;7.550;2023-05-12T12:18:54;100512.75;;;18.13;100.00
54808;BME280;40708;50.364;7.550;2023-05-12T12:21:20;100517.19;;;18.14;100.00
54808;BME280;40708;50.364;7.550;2023-05-12T12:23:46;100523.84;;;18.31;100.00
54808;BME280;40708;50.364;7.550;2023-05-12T12:26:12;100503.94;;;18.08;100.00
54808;BME280;40708;50.364;7.550;2023-05-12T12:28:40;100509.06;;;17.86;100.00
54808;BME280;40708;50.364;7.550;2023-05-12T12:31:06;100533.34;;;17.81;100.00
54808;BME280;40708;50.364;7.550;2023-05-12T12:33:31;100540.72;;;17.73;100.00
54808;BME280;40708;50.364;7.550;2023-05-12T12:35:57;100568.91;;;17.56;100.00
54808;BME280;40708;50.364;7.550;2023-05-12T12:38:22;100640.19;;;17.29;100.00
54808;BME280;40708;50.364;7.550;2023-05-12T12:40:47;100685.75;;;16.91;100.00
54808;BME280;40708;50.364;7.550;2023-05-12T12:43:13;100738.94;;;16.66;100.00